createdAt,value
2022-08-19T00:00:27.500Z,17.10
2022-08-19T00:04:20.602Z,15.95
2022-08-19T00:07:25.034Z,16.30
2022-08-19T00:10:11.288Z,16.42
2022-08-19T00:12:48.736Z,16.25
2022-08-19T00:15:59.795Z,16.75
2022-08-19T00:19:01.996Z,18.40
2022-08-19T00:21:46.179Z,16.08
2022-08-19T00:24:50.711Z,14.35
2022-08-19T00:27:45.236Z,14.82
2022-08-19T00:38:39.531Z,14.68
2022-08-19T00:40:41.134Z,14.90
2022-08-19T00:43:14.451Z,14.82
2022-08-19T00:45:48.678Z,14.52
2022-08-19T00:48:42.266Z,14.68
2022-08-19T00:52:21.373Z,13.98
2022-08-19T01:00:02.608Z,14.48
2022-08-19T01:03:19.500Z,13.77
2022-08-19T01:05:59.228Z,13.27
2022-08-19T01:08:36.484Z,13.32
2022-08-19T01:11:43.817Z,12.15
2022-08-19T01:14:25.957Z,13.02
2022-08-19T01:16:56.566Z,12.43
2022-08-19T01:19:44.252Z,12.73
2022-08-19T01:23:03.317Z,12.45
2022-08-19T01:26:20.052Z,12.35
2022-08-19T01:28:49.781Z,12.05
2022-08-19T01:31:27.342Z,11.25
2022-08-19T01:34:01.482Z,11.52
2022-08-19T01:36:38.993Z,11.48
2022-08-19T01:42:10.522Z,11.57
2022-08-19T01:45:11.190Z,10.82
2022-08-19T01:48:51.750Z,12.07
2022-08-19T01:55:27.631Z,9.63
2022-08-19T01:59:16.314Z,9.18
2022-08-19T02:02:33.257Z,8.73
2022-08-19T02:05:11.924Z,9.02
2022-08-19T02:11:08.738Z,9.77
2022-08-19T02:13:57.142Z,9.02
2022-08-19T02:16:44.470Z,9.45
2022-08-19T02:22:27.224Z,9.52
2022-08-19T02:25:11.974Z,9.73
2022-08-19T02:27:41.422Z,9.77
2022-08-19T02:30:14.135Z,10.15
2022-08-19T02:32:54.432Z,9.55
2022-08-19T02:35:28.353Z,9.70
2022-08-19T02:38:39.595Z,9.38
2022-08-19T02:41:39.807Z,10.65
2022-08-19T02:44:35.390Z,17.42
2022-08-19T02:47:31.698Z,13.85
2022-08-19T02:50:16.746Z,5.25
2022-08-19T02:52:43.811Z,4.10
2022-08-19T02:55:11.101Z,3.72
2022-08-19T02:57:38.833Z,1.55
2022-08-19T03:00:07.732Z,1.50
2022-08-19T03:02:34.953Z,1.77
2022-08-19T03:05:04.314Z,1.70
2022-08-19T03:07:31.645Z,1.40
2022-08-19T03:09:58.853Z,1.30
2022-08-19T03:12:26.209Z,1.17
2022-08-19T03:14:53.853Z,1.55
2022-08-19T03:17:24.427Z,1.33
2022-08-19T03:19:55.019Z,1.40
2022-08-19T03:22:22.063Z,1.77
2022-08-19T03:24:49.200Z,1.55
2022-08-19T03:27:16.490Z,1.60
2022-08-19T03:29:44.536Z,1.60
2022-08-19T03:32:29.692Z,1.30
2022-08-19T03:34:59.318Z,2.30
2022-08-19T03:37:29.657Z,2.13
2022-08-19T03:39:56.778Z,3.17
2022-08-19T03:42:32.183Z,4.07
2022-08-19T03:45:08.164Z,4.32
2022-08-19T03:47:46.278Z,4.30
2022-08-19T03:50:28.056Z,4.07
2022-08-19T03:59:19.747Z,6.43
2022-08-19T04:02:58.236Z,6.40
2022-08-19T04:07:58.551Z,7.75
2022-08-19T04:20:53.648Z,8.27
2022-08-19T04:26:48.321Z,7.32
2022-08-19T04:30:43.479Z,7.43
2022-08-19T04:42:40.870Z,11.30
2022-08-19T04:45:13.863Z,13.18
2022-08-19T04:47:47.552Z,12.80
2022-08-19T04:50:19.639Z,14.23
2022-08-19T04:52:51.821Z,15.70
2022-08-19T04:55:19.229Z,21.27
2022-08-19T04:57:46.315Z,19.52
2022-08-19T05:00:16.093Z,20.17
2022-08-19T05:03:11.140Z,19.50
2022-08-19T05:06:26.573Z,18.67
2022-08-19T05:08:53.898Z,18.83
2022-08-19T05:12:28.761Z,21.00
2022-08-19T05:14:58.429Z,18.48
2022-08-19T05:17:28.406Z,19.13
2022-08-19T05:20:15.862Z,11.77
2022-08-19T05:22:45.154Z,8.52
2022-08-19T05:25:16.774Z,8.70
2022-08-19T05:27:44.015Z,8.20
2022-08-19T05:30:13.128Z,6.32
2022-08-19T05:32:43.544Z,6.35
2022-08-19T05:35:16.678Z,2.97
2022-08-19T05:37:46.893Z,2.60
2022-08-19T05:40:20.296Z,3.13
2022-08-19T05:42:55.139Z,2.10
2022-08-19T05:46:02.104Z,2.38
2022-08-19T05:48:32.451Z,2.05
2022-08-19T05:51:06.817Z,2.25
2022-08-19T05:53:34.799Z,2.70
2022-08-19T05:56:51.113Z,2.50
2022-08-19T05:59:53.131Z,2.30
2022-08-19T06:02:34.375Z,2.13
2022-08-19T06:05:25.931Z,2.58
2022-08-19T06:07:53.203Z,2.20
2022-08-19T06:10:22.663Z,1.83
2022-08-19T06:16:12.381Z,1.65
2022-08-19T06:18:46.068Z,1.60
2022-08-19T06:21:19.853Z,1.58
2022-08-19T06:23:53.183Z,1.50
2022-08-19T06:26:23.466Z,1.40
2022-08-19T06:28:54.098Z,1.83
2022-08-19T06:48:34.652Z,1.30
2022-08-19T06:56:37.469Z,1.50
2022-08-19T07:05:00.228Z,1.00
2022-08-19T07:07:29.508Z,0.90
2022-08-19T07:09:59.946Z,1.00
2022-08-19T07:12:35.412Z,1.10
2022-08-19T07:18:12.380Z,0.90
2022-08-19T07:21:15.638Z,1.65
2022-08-19T07:23:59.543Z,1.02
2022-08-19T07:26:47.251Z,0.82
2022-08-19T07:29:20.428Z,0.93
2022-08-19T07:31:52.448Z,0.45
2022-08-19T07:34:23.881Z,0.50
2022-08-19T07:37:01.514Z,0.60
2022-08-19T07:39:42.281Z,0.50
2022-08-19T07:42:22.471Z,0.65
2022-08-19T07:44:50.924Z,0.50
2022-08-19T07:47:49.137Z,0.60
2022-08-19T07:50:12.350Z,0.70
2022-08-19T07:52:40.674Z,0.70
2022-08-19T07:55:11.311Z,0.60
2022-08-19T07:57:57.114Z,0.68
2022-08-19T08:00:24.390Z,0.50
2022-08-19T08:02:55.375Z,0.60
2022-08-19T08:05:43.969Z,0.90
2022-08-19T08:08:32.015Z,0.90
2022-08-19T08:11:00.433Z,0.70
2022-08-19T08:13:28.207Z,2.17
2022-08-19T08:15:57.909Z,1.23
2022-08-19T08:18:28.146Z,1.10
2022-08-19T08:20:58.333Z,0.80
2022-08-19T08:23:29.660Z,0.75
2022-08-19T08:25:58.918Z,0.70
2022-08-19T08:28:29.306Z,0.80
2022-08-19T08:30:59.145Z,0.82
2022-08-19T08:33:34.235Z,0.90
2022-08-19T08:36:05.179Z,0.80
2022-08-19T08:38:38.902Z,0.70
2022-08-19T08:41:32.666Z,0.82
2022-08-19T08:43:59.894Z,0.80
2022-08-19T08:46:41.021Z,0.60
2022-08-19T08:49:17.086Z,1.00
2022-08-19T08:51:48.565Z,1.08
2022-08-19T08:54:32.001Z,0.70
2022-08-19T08:57:04.638Z,1.02
2022-08-19T08:59:34.423Z,0.55
2022-08-19T09:02:01.578Z,0.68
2022-08-19T09:04:28.949Z,0.70
2022-08-19T09:07:34.769Z,1.00
2022-08-19T09:10:11.751Z,0.70
2022-08-19T09:13:25.102Z,0.60
2022-08-19T09:16:02.512Z,0.90
2022-08-19T09:19:02.741Z,1.20
2022-08-19T09:21:33.313Z,1.00
2022-08-19T09:24:03.452Z,1.10
2022-08-19T09:26:47.251Z,0.82
2022-08-19T09:29:15.613Z,1.10
2022-08-19T09:31:44.777Z,0.88
2022-08-19T09:34:21.113Z,0.80
2022-08-19T09:36:54.006Z,0.70
2022-08-19T09:39:21.843Z,1.08
2022-08-19T09:41:50.849Z,1.10
2022-08-19T09:44:18.983Z,1.00
2022-08-19T09:46:48.271Z,1.40
2022-08-19T09:49:18.314Z,1.60
2022-08-19T09:51:51.305Z,1.35
2022-08-19T09:56:51.045Z,1.50
2022-08-19T09:59:18.074Z,1.38
2022-08-19T10:01:44.851Z,1.50
2022-08-19T10:04:20.280Z,1.70
2022-08-19T10:06:53.825Z,1.73
2022-08-19T10:09:33.533Z,1.63
2022-08-19T10:12:02.635Z,1.80
2022-08-19T10:14:30.569Z,1.70
2022-08-19T10:16:59.189Z,1.80
2022-08-19T10:19:26.808Z,1.50
2022-08-19T10:21:54.448Z,1.55
2022-08-19T10:24:28.461Z,1.52
2022-08-19T10:26:56.021Z,1.50
2022-08-19T10:29:32.265Z,1.40
2022-08-19T10:32:09.709Z,1.63
2022-08-19T10:34:38.428Z,2.17
2022-08-19T10:37:23.621Z,1.60
2022-08-19T10:39:51.673Z,1.58
2022-08-19T10:42:19.701Z,2.00
2022-08-19T10:44:47.720Z,2.33
2022-08-19T10:47:17.188Z,2.28
2022-08-19T10:50:30.150Z,2.60
2022-08-19T10:52:57.088Z,2.83
2022-08-19T10:55:43.749Z,6.40
2022-08-19T10:58:13.356Z,3.00
2022-08-19T11:00:41.516Z,2.75
2022-08-19T11:03:09.402Z,2.50
2022-08-19T11:05:40.360Z,2.33
2022-08-19T11:08:22.634Z,2.20
2022-08-19T11:10:56.375Z,1.80
2022-08-19T11:13:24.264Z,1.83
2022-08-19T11:16:07.134Z,1.73
2022-08-19T11:21:14.933Z,1.92
2022-08-19T11:23:42.014Z,2.03
2022-08-19T11:26:08.984Z,1.88
2022-08-19T11:28:36.731Z,2.45
2022-08-19T11:31:05.075Z,2.00
2022-08-19T11:33:32.496Z,3.55
2022-08-19T11:36:00.356Z,2.13
2022-08-19T11:38:27.904Z,1.60
2022-08-19T11:40:59.779Z,1.40
2022-08-19T11:43:27.749Z,1.35
2022-08-19T11:45:56.248Z,1.50
2022-08-19T11:48:24.021Z,1.38
2022-08-19T11:50:51.961Z,1.67
2022-08-19T11:53:20.245Z,1.80
2022-08-19T11:55:48.526Z,2.83
2022-08-19T11:58:18.897Z,2.38
2022-08-19T12:00:46.145Z,2.00
2022-08-19T12:03:13.981Z,2.78
2022-08-19T12:05:41.911Z,1.90
2022-08-19T12:08:09.016Z,2.10
2022-08-19T12:10:36.299Z,2.45
2022-08-19T12:13:03.429Z,2.33
2022-08-19T12:15:37.000Z,2.55
2022-08-19T12:18:05.927Z,2.33
2022-08-19T12:20:38.785Z,2.13
2022-08-19T12:23:06.252Z,3.05
2022-08-19T12:25:33.896Z,2.35
2022-08-19T12:28:01.237Z,1.90
2022-08-19T12:30:28.825Z,1.63
2022-08-19T12:32:56.059Z,1.40
2022-08-19T12:35:24.797Z,1.20
2022-08-19T12:37:56.959Z,1.00
2022-08-19T12:40:27.491Z,0.90
2022-08-19T12:42:55.206Z,1.10
2022-08-19T12:45:22.588Z,1.00
2022-08-19T12:47:50.471Z,1.08
2022-08-19T12:50:22.454Z,1.27
2022-08-19T12:52:50.018Z,1.40
2022-08-19T12:55:19.519Z,1.30
2022-08-19T12:57:46.418Z,1.38
2022-08-19T13:00:17.678Z,1.25
2022-08-19T13:02:47.523Z,1.20
2022-08-19T13:05:16.944Z,1.60
2022-08-19T13:07:44.968Z,1.52
2022-08-19T13:10:16.277Z,1.42
2022-08-19T13:12:44.992Z,1.90
2022-08-19T13:15:15.253Z,2.00
2022-08-19T13:17:43.123Z,1.70
2022-08-19T13:20:11.721Z,1.50
2022-08-19T13:22:39.376Z,1.10
2022-08-19T13:25:07.471Z,1.25
2022-08-19T13:27:34.450Z,1.25
2022-08-19T13:30:21.620Z,1.27
2022-08-19T13:33:08.962Z,1.00
2022-08-19T13:35:35.783Z,0.80
2022-08-19T13:38:05.673Z,1.17
2022-08-19T13:40:41.188Z,1.00
2022-08-19T13:43:12.429Z,0.90
2022-08-19T13:45:50.097Z,0.73
2022-08-19T13:48:19.119Z,0.75
2022-08-19T13:50:48.286Z,0.90
2022-08-19T13:53:15.460Z,0.63
2022-08-19T13:55:43.272Z,0.80
2022-08-19T13:58:11.656Z,0.73
2022-08-19T14:00:41.294Z,0.90
2022-08-19T14:03:09.394Z,0.70
2022-08-19T14:05:37.439Z,0.88
2022-08-19T14:08:04.703Z,0.70
2022-08-19T14:10:32.636Z,0.77
2022-08-19T14:13:01.232Z,0.60
2022-08-19T14:15:28.961Z,0.70
2022-08-19T14:17:56.346Z,0.60
2022-08-19T14:20:25.907Z,0.85
2022-08-19T14:22:55.627Z,1.50
2022-08-19T14:25:27.397Z,0.60
2022-08-19T14:27:54.367Z,0.65
2022-08-19T14:30:27.742Z,0.82
2022-08-19T14:32:56.289Z,0.90
2022-08-19T14:35:23.875Z,0.80
2022-08-19T14:37:51.873Z,2.10
2022-08-19T14:40:23.300Z,0.90
2022-08-19T14:42:50.414Z,0.93
2022-08-19T14:45:17.201Z,0.80
2022-08-19T14:47:46.134Z,1.98
2022-08-19T14:50:18.265Z,0.75
2022-08-19T14:52:49.623Z,0.80
2022-08-19T14:55:18.145Z,0.90
2022-08-19T14:57:45.718Z,0.90
2022-08-19T15:00:15.921Z,1.15
2022-08-19T15:02:45.110Z,1.10
2022-08-19T15:05:13.077Z,1.27
2022-08-19T15:07:40.396Z,1.10
2022-08-19T15:10:08.599Z,1.10
2022-08-19T15:12:35.637Z,1.05
2022-08-19T15:15:05.789Z,1.10
2022-08-19T15:17:46.097Z,1.75
2022-08-19T15:20:21.908Z,1.30
2022-08-19T15:22:49.678Z,0.95
2022-08-19T15:25:19.565Z,1.20
2022-08-19T15:27:46.707Z,1.17
2022-08-19T15:30:23.509Z,0.93
2022-08-19T15:32:50.982Z,1.25
2022-08-19T15:35:19.413Z,1.10
2022-08-19T15:37:49.511Z,1.23
2022-08-19T15:40:17.597Z,1.30
2022-08-19T15:42:44.964Z,1.40
2022-08-19T15:45:13.160Z,1.17
2022-08-19T15:47:40.570Z,1.30
2022-08-19T15:50:15.339Z,1.20
2022-08-19T15:52:49.528Z,1.05
2022-08-19T15:55:33.624Z,1.20
2022-08-19T15:58:29.215Z,1.20
2022-08-19T16:01:18.838Z,1.30
2022-08-19T16:04:14.238Z,1.10
2022-08-19T16:06:49.538Z,1.38
2022-08-19T16:09:17.454Z,1.13
2022-08-19T16:11:46.513Z,1.00
2022-08-19T16:14:18.559Z,1.33
2022-08-19T16:16:47.233Z,1.20
2022-08-19T16:19:18.132Z,1.08
2022-08-19T16:21:47.450Z,1.23
2022-08-19T16:24:17.521Z,1.30
2022-08-19T16:26:45.058Z,0.98
2022-08-19T16:29:13.219Z,1.17
2022-08-19T16:31:43.625Z,1.52
2022-08-19T16:34:11.388Z,1.30
2022-08-19T16:36:41.829Z,1.20
2022-08-19T16:39:11.599Z,1.05
2022-08-19T16:41:39.710Z,1.38
2022-08-19T16:44:09.967Z,1.33
2022-08-19T16:46:43.395Z,1.95
2022-08-19T16:49:11.122Z,1.20
2022-08-19T16:51:39.273Z,1.23
2022-08-19T16:54:06.613Z,1.23
2022-08-19T16:56:34.156Z,1.10
2022-08-19T16:59:01.226Z,1.20
2022-08-19T17:01:28.664Z,1.20
2022-08-19T17:03:56.713Z,1.33
2022-08-19T17:06:26.981Z,1.40
2022-08-19T17:08:56.372Z,1.10
2022-08-19T17:11:24.458Z,1.00
2022-08-19T17:13:51.556Z,1.20
2022-08-19T17:16:24.649Z,1.10
2022-08-19T17:21:22.542Z,2.22
2022-08-19T17:23:49.556Z,3.25
2022-08-19T17:26:18.577Z,2.20
2022-08-19T17:28:50.766Z,1.80
2022-08-19T17:31:20.028Z,2.30
2022-08-19T17:33:48.756Z,1.70
2022-08-19T17:36:23.369Z,1.30
2022-08-19T17:38:51.502Z,1.75
2022-08-19T17:41:18.905Z,2.42
2022-08-19T17:43:45.777Z,1.85
2022-08-19T17:46:18.697Z,2.10
2022-08-19T17:51:19.008Z,1.90
2022-08-19T17:53:50.914Z,1.80
2022-08-19T17:56:18.440Z,1.60
2022-08-19T17:58:48.983Z,1.23
2022-08-19T18:01:26.503Z,1.45
2022-08-19T18:03:56.267Z,1.30
2022-08-19T18:06:23.360Z,1.38
2022-08-19T18:08:50.438Z,1.52
2022-08-19T18:11:17.372Z,1.85
2022-08-19T18:13:44.298Z,1.23
2022-08-19T18:16:12.459Z,1.23
2022-08-19T18:18:41.848Z,1.63
2022-08-19T18:21:09.854Z,1.48
2022-08-19T18:23:44.874Z,1.48
2022-08-19T18:26:12.795Z,1.40
2022-08-19T18:28:39.899Z,1.75
2022-08-19T18:31:17.140Z,2.72
2022-08-19T18:33:45.032Z,3.22
2022-08-19T18:36:12.162Z,2.80
2022-08-19T18:38:57.472Z,3.22
2022-08-19T18:41:43.509Z,2.55
2022-08-19T18:44:28.826Z,2.30
2022-08-19T18:47:14.274Z,1.98
2022-08-19T18:49:41.043Z,2.10
2022-08-19T18:52:07.829Z,1.95
2022-08-19T18:54:35.693Z,1.80
2022-08-19T18:57:05.575Z,2.10
2022-08-19T18:59:32.828Z,2.10
2022-08-19T19:02:00.484Z,2.70
2022-08-19T19:04:31.076Z,1.95
2022-08-19T19:06:58.501Z,1.80
2022-08-19T19:09:26.234Z,2.40
2022-08-19T19:11:59.145Z,1.80
2022-08-19T19:14:50.563Z,1.90
2022-08-19T19:17:17.615Z,2.00
2022-08-19T19:19:45.235Z,1.98
2022-08-19T19:22:18.868Z,2.25
2022-08-19T19:24:48.731Z,3.17
2022-08-19T19:27:18.465Z,2.05
2022-08-19T19:29:48.487Z,2.33
2022-08-19T19:32:22.755Z,3.90
2022-08-19T19:34:50.068Z,2.20
2022-08-19T19:37:17.316Z,2.30
2022-08-19T19:39:46.381Z,3.03
2022-08-19T19:42:20.520Z,2.88
2022-08-19T19:44:55.395Z,3.00
2022-08-19T19:47:28.619Z,2.75
2022-08-19T19:50:14.675Z,2.72
2022-08-19T19:52:45.736Z,2.88
2022-08-19T19:55:18.106Z,2.75
2022-08-19T19:57:46.953Z,2.03
2022-08-19T20:00:18.881Z,2.33
2022-08-19T20:02:50.072Z,2.50
2022-08-19T20:05:21.733Z,2.63
2022-08-19T20:08:09.309Z,3.08
2022-08-19T20:10:59.200Z,3.05
2022-08-19T20:13:36.424Z,3.20
2022-08-19T20:16:13.288Z,3.30
2022-08-19T20:18:49.628Z,2.95
2022-08-19T20:21:16.571Z,3.95
2022-08-19T20:24:09.378Z,3.05
2022-08-19T20:26:50.372Z,11.88
2022-08-19T20:29:39.124Z,4.90
2022-08-19T20:32:09.964Z,6.13
2022-08-19T20:34:37.322Z,8.65
2022-08-19T20:37:28.636Z,5.93
2022-08-19T20:39:55.946Z,13.75
2022-08-19T20:42:45.723Z,4.28
2022-08-19T20:45:33.007Z,4.00
2022-08-19T20:48:06.000Z,11.35
2022-08-19T20:53:42.561Z,7.85
2022-08-19T20:56:21.107Z,5.75
2022-08-19T20:58:52.260Z,15.23
2022-08-19T21:01:30.736Z,5.20
2022-08-19T21:04:00.802Z,6.20
2022-08-19T21:06:29.865Z,5.82
2022-08-19T21:08:56.793Z,5.72
2022-08-19T21:11:24.093Z,5.30
2022-08-19T21:14:10.415Z,6.23
2022-08-19T21:16:52.032Z,6.15
2022-08-19T21:19:25.104Z,8.07
2022-08-19T21:21:55.529Z,10.13
2022-08-19T21:24:43.248Z,6.63
2022-08-19T21:27:10.721Z,6.75
2022-08-19T21:29:40.254Z,7.07
2022-08-19T21:32:15.608Z,9.75
2022-08-19T21:34:46.953Z,6.97
2022-08-19T21:37:18.999Z,7.10
2022-08-19T21:39:53.379Z,8.15
2022-08-19T21:42:22.005Z,10.32
2022-08-19T21:44:56.697Z,8.20
2022-08-19T21:47:23.877Z,8.23
2022-08-19T21:49:51.119Z,7.45
2022-08-19T21:52:23.361Z,7.28
2022-08-19T21:55:25.000Z,8.85
2022-08-19T21:58:05.560Z,7.30
2022-08-19T22:00:38.439Z,7.97
2022-08-19T22:03:06.488Z,9.27
2022-08-19T22:05:52.428Z,7.80
2022-08-19T22:08:22.805Z,9.50
2022-08-19T22:11:07.399Z,19.83
2022-08-19T22:13:39.889Z,19.63
2022-08-19T22:16:09.538Z,8.90
2022-08-19T22:18:44.696Z,15.18
2022-08-19T22:21:14.942Z,7.80
2022-08-19T22:27:23.486Z,12.43
2022-08-19T22:29:58.310Z,8.25
2022-08-19T22:32:32.598Z,9.45
2022-08-19T22:35:32.689Z,8.20
2022-08-19T22:38:10.843Z,7.88
2022-08-19T22:40:40.774Z,8.73
2022-08-19T22:43:27.661Z,9.82
2022-08-19T22:45:58.384Z,10.02
2022-08-19T22:48:27.988Z,8.00
2022-08-19T22:51:14.481Z,7.35
2022-08-19T22:53:47.245Z,7.25
2022-08-19T22:56:18.026Z,8.20
2022-08-19T22:58:46.639Z,7.63
2022-08-19T23:01:27.292Z,7.80
2022-08-19T23:04:03.998Z,7.28
2022-08-19T23:06:33.763Z,7.03
2022-08-19T23:09:24.319Z,8.10
2022-08-19T23:12:03.214Z,7.65
2022-08-19T23:14:53.843Z,6.34
2022-08-19T23:17:59.733Z,7.63
2022-08-19T23:20:39.187Z,8.73
2022-08-19T23:23:24.619Z,7.97
2022-08-19T23:26:06.446Z,7.60
2022-08-19T23:33:01.398Z,5.55
2022-08-19T23:40:00.464Z,5.43
2022-08-19T23:43:37.893Z,6.03
2022-08-19T23:46:54.397Z,5.63
2022-08-19T23:49:26.219Z,6.95
2022-08-19T23:51:54.638Z,6.60
2022-08-19T23:54:43.070Z,8.85
